sensor_id;sensor_type;location;lat;lon;timestamp;pressure;altitude;pressure_sealevel;temperature;humidity
77118;BME280;66072;50.238;19.228;2023-04-24T00:02:18;97625.41;;;8.54;70.24
77118;BME280;66072;50.238;19.228;2023-04-24T00:04:46;97622.58;;;8.49;70.53
77118;BME280;66072;50.238;19.228;2023-04-24T00:07:13;97619.08;;;8.44;70.62
77118;BME280;66072;50.238;19.228;2023-04-24T00:09:41;97618.46;;;8.40;71.11
77118;BME280;66072;50.238;19.228;2023-04-24T00:12:09;97614.62;;;8.35;71.58
77118;BME280;66072;50.238;19.228;2023-04-24T00:14:37;97613.67;;;8.30;71.97
77118;BME280;66072;50.238;19.228;2023-04-24T00:17:05;97611.51;;;8.25;72.28
77118;BME280;66072;50.238;19.228;2023-04-24T00:19:32;97611.44;;;8.20;72.35
77118;BME280;66072;50.238;19.228;2023-04-24T00:22:00;97605.72;;;8.15;72.54
77118;BME280;66072;50.238;19.228;2023-04-24T00:24:28;97606.63;;;8.11;72.94
77118;BME280;66072;50.238;19.228;2023-04-24T00:26:55;97598.35;;;8.06;73.60
77118;BME280;66072;50.238;19.228;2023-04-24T00:29:23;97597.06;;;8.04;74.26
77118;BME280;66072;50.238;19.228;2023-04-24T00:31:51;97594.80;;;8.05;75.01
77118;BME280;66072;50.238;19.228;2023-04-24T00:34:19;97593.10;;;8.08;74.02
77118;BME280;66072;50.238;19.228;2023-04-24T00:36:46;97588.64;;;8.09;73.41
77118;BME280;66072;50.238;19.228;2023-04-24T00:39:14;97588.55;;;8.12;73.06
77118;BME280;66072;50.238;19.228;2023-04-24T00:41:41;97584.13;;;8.14;72.23
77118;BME280;66072;50.238;19.228;2023-04-24T00:44:10;97581.29;;;8.17;71.59
77118;BME280;66072;50.238;19.228;2023-04-24T00:46:37;97575.89;;;8.22;70.80
77118;BME280;66072;50.238;19.228;2023-04-24T00:49:05;97574.48;;;8.33;69.77
77118;BME280;66072;50.238;19.228;2023-04-24T00:51:33;97575.22;;;8.46;69.00
77118;BME280;66072;50.238;19.228;2023-04-24T00:54:01;97571.55;;;8.57;68.63
77118;BME280;66072;50.238;19.228;2023-04-24T00:56:28;97574.91;;;8.71;67.66
77118;BME280;66072;50.238;19.228;2023-04-24T00:58:57;97574.21;;;8.81;67.60
77118;BME280;66072;50.238;19.228;2023-04-24T01:01:25;97574.04;;;8.84;67.38
77118;BME280;66072;50.238;19.228;2023-04-24T01:03:53;97572.15;;;8.84;67.19
77118;BME280;66072;50.238;19.228;2023-04-24T01:06:22;97574.17;;;8.85;66.98
77118;BME280;66072;50.238;19.228;2023-04-24T01:08:49;97566.22;;;8.84;66.49
77118;BME280;66072;50.238;19.228;2023-04-24T01:11:17;97566.40;;;8.83;66.00
77118;BME280;66072;50.238;19.228;2023-04-24T01:13:46;97562.48;;;8.83;65.80
77118;BME280;66072;50.238;19.228;2023-04-24T01:16:14;97562.16;;;8.83;66.11
77118;BME280;66072;50.238;19.228;2023-04-24T01:18:43;97559.28;;;8.79;67.00
77118;BME280;66072;50.238;19.228;2023-04-24T01:21:14;97558.40;;;8.73;67.87
77118;BME280;66072;50.238;19.228;2023-04-24T01:23:43;97561.18;;;8.67;68.68
77118;BME280;66072;50.238;19.228;2023-04-24T01:26:13;97560.27;;;8.57;69.28
77118;BME280;66072;50.238;19.228;2023-04-24T01:28:41;97553.95;;;8.48;69.39
77118;BME280;66072;50.238;19.228;2023-04-24T01:31:09;97549.27;;;8.36;69.76
77118;BME280;66072;50.238;19.228;2023-04-24T01:33:36;97550.78;;;8.27;70.46
77118;BME280;66072;50.238;19.228;2023-04-24T01:36:04;97547.02;;;8.17;70.68
77118;BME280;66072;50.238;19.228;2023-04-24T01:38:32;97544.45;;;8.07;70.87
77118;BME280;66072;50.238;19.228;2023-04-24T01:41:00;97543.70;;;7.99;71.24
77118;BME280;66072;50.238;19.228;2023-04-24T01:43:28;97541.23;;;7.90;71.93
77118;BME280;66072;50.238;19.228;2023-04-24T01:45:56;97537.64;;;7.84;72.83
77118;BME280;66072;50.238;19.228;2023-04-24T01:48:24;97538.88;;;7.76;72.73
77118;BME280;66072;50.238;19.228;2023-04-24T01:50:51;97534.98;;;7.69;72.69
77118;BME280;66072;50.238;19.228;2023-04-24T01:53:19;97530.19;;;7.63;73.27
77118;BME280;66072;50.238;19.228;2023-04-24T01:55:47;97529.84;;;7.56;73.07
77118;BME280;66072;50.238;19.228;2023-04-24T01:58:14;97527.45;;;7.49;73.25
77118;BME280;66072;50.238;19.228;2023-04-24T02:00:42;97527.70;;;7.44;73.06
77118;BME280;66072;50.238;19.228;2023-04-24T02:03:10;97525.63;;;7.38;72.44
77118;BME280;66072;50.238;19.228;2023-04-24T02:05:38;97524.34;;;7.33;72.24
77118;BME280;66072;50.238;19.228;2023-04-24T02:08:06;97518.31;;;7.27;71.98
77118;BME280;66072;50.238;19.228;2023-04-24T02:10:33;97522.79;;;7.23;72.12
77118;BME280;66072;50.238;19.228;2023-04-24T02:13:01;97517.38;;;7.22;72.54
77118;BME280;66072;50.238;19.228;2023-04-24T02:15:28;97517.31;;;7.20;72.36
77118;BME280;66072;50.238;19.228;2023-04-24T02:17:56;97514.94;;;7.17;72.11
77118;BME280;66072;50.238;19.228;2023-04-24T02:20:24;97513.20;;;7.14;72.15
77118;BME280;66072;50.238;19.228;2023-04-24T02:22:51;97508.45;;;7.10;72.32
77118;BME280;66072;50.238;19.228;2023-04-24T02:25:19;97507.98;;;7.06;72.64
77118;BME280;66072;50.238;19.228;2023-04-24T02:27:47;97506.20;;;7.00;73.04
77118;BME280;66072;50.238;19.228;2023-04-24T02:30:14;97502.23;;;6.94;73.03
77118;BME280;66072;50.238;19.228;2023-04-24T02:32:42;97502.55;;;6.87;73.38
77118;BME280;66072;50.238;19.228;2023-04-24T02:35:09;97497.77;;;6.81;73.36
77118;BME280;66072;50.238;19.228;2023-04-24T02:37:37;97493.31;;;6.74;73.73
77118;BME280;66072;50.238;19.228;2023-04-24T02:40:05;97493.39;;;6.69;73.85
77118;BME280;66072;50.238;19.228;2023-04-24T02:42:33;97492.54;;;6.65;74.38
77118;BME280;66072;50.238;19.228;2023-04-24T02:45:01;97488.26;;;6.62;74.05
77118;BME280;66072;50.238;19.228;2023-04-24T02:47:28;97489.20;;;6.60;72.89
77118;BME280;66072;50.238;19.228;2023-04-24T02:49:56;97490.42;;;6.60;72.17
77118;BME280;66072;50.238;19.228;2023-04-24T02:52:23;97489.22;;;6.60;71.47
77118;BME280;66072;50.238;19.228;2023-04-24T02:54:51;97492.92;;;6.61;71.29
77118;BME280;66072;50.238;19.228;2023-04-24T02:57:19;97491.27;;;6.60;72.31
77118;BME280;66072;50.238;19.228;2023-04-24T02:59:46;97489.33;;;6.58;72.40
77118;BME280;66072;50.238;19.228;2023-04-24T03:02:14;97488.89;;;6.56;73.06
77118;BME280;66072;50.238;19.228;2023-04-24T03:04:42;97490.36;;;6.54;73.29
77118;BME280;66072;50.238;19.228;2023-04-24T03:07:10;97488.09;;;6.52;73.15
77118;BME280;66072;50.238;19.228;2023-04-24T03:09:37;97489.16;;;6.50;73.34
77118;BME280;66072;50.238;19.228;2023-04-24T03:12:05;97490.07;;;6.49;73.37
77118;BME280;66072;50.238;19.228;2023-04-24T03:14:33;97488.37;;;6.45;74.01
77118;BME280;66072;50.238;19.228;2023-04-24T03:17:00;97489.55;;;6.42;74.75
77118;BME280;66072;50.238;19.228;2023-04-24T03:19:28;97491.24;;;6.38;75.00
77118;BME280;66072;50.238;19.228;2023-04-24T03:21:55;97491.09;;;6.34;74.44
77118;BME280;66072;50.238;19.228;2023-04-24T03:24:23;97494.98;;;6.30;74.77
77118;BME280;66072;50.238;19.228;2023-04-24T03:26:51;97491.55;;;6.27;74.77
77118;BME280;66072;50.238;19.228;2023-04-24T03:29:18;97489.60;;;6.22;74.57
77118;BME280;66072;50.238;19.228;2023-04-24T03:31:46;97490.88;;;6.20;74.66
77118;BME280;66072;50.238;19.228;2023-04-24T03:34:13;97491.61;;;6.19;74.04
77118;BME280;66072;50.238;19.228;2023-04-24T03:36:41;97490.70;;;6.20;73.93
77118;BME280;66072;50.238;19.228;2023-04-24T03:39:09;97490.13;;;6.22;73.99
77118;BME280;66072;50.238;19.228;2023-04-24T03:41:36;97490.98;;;6.25;74.07
77118;BME280;66072;50.238;19.228;2023-04-24T03:44:04;97491.61;;;6.30;73.86
77118;BME280;66072;50.238;19.228;2023-04-24T03:46:31;97490.79;;;6.37;73.68
77118;BME280;66072;50.238;19.228;2023-04-24T03:48:59;97490.29;;;6.44;73.65
77118;BME280;66072;50.238;19.228;2023-04-24T03:51:27;97493.44;;;6.53;73.40
77118;BME280;66072;50.238;19.228;2023-04-24T03:53:54;97492.11;;;6.60;73.56
77118;BME280;66072;50.238;19.228;2023-04-24T03:56:22;97492.64;;;6.67;73.31
77118;BME280;66072;50.238;19.228;2023-04-24T03:58:49;97491.71;;;6.72;73.63
77118;BME280;66072;50.238;19.228;2023-04-24T04:01:17;97492.27;;;6.79;73.71
77118;BME280;66072;50.238;19.228;2023-04-24T04:03:45;97495.86;;;6.85;73.60
77118;BME280;66072;50.238;19.228;2023-04-24T04:06:12;97494.27;;;6.90;73.88
77118;BME280;66072;50.238;19.228;2023-04-24T04:08:40;97492.11;;;6.96;73.99
77118;BME280;66072;50.238;19.228;2023-04-24T04:11:08;97490.98;;;7.02;73.92
77118;BME280;66072;50.238;19.228;2023-04-24T04:13:35;97487.84;;;7.07;73.70
77118;BME280;66072;50.238;19.228;2023-04-24T04:16:03;97491.98;;;7.13;73.44
77118;BME280;66072;50.238;19.228;2023-04-24T04:18:31;97491.66;;;7.20;74.00
77118;BME280;66072;50.238;19.228;2023-04-24T04:20:58;97491.00;;;7.26;74.07
77118;BME280;66072;50.238;19.228;2023-04-24T04:23:26;97492.14;;;7.34;74.07
77118;BME280;66072;50.238;19.228;2023-04-24T04:25:53;97491.23;;;7.42;73.87
77118;BME280;66072;50.238;19.228;2023-04-24T04:28:21;97489.46;;;7.50;74.05
77118;BME280;66072;50.238;19.228;2023-04-24T04:30:49;97490.06;;;7.59;74.01
77118;BME280;66072;50.238;19.228;2023-04-24T04:33:16;97487.60;;;7.67;74.27
77118;BME280;66072;50.238;19.228;2023-04-24T04:35:44;97485.49;;;7.75;73.66
77118;BME280;66072;50.238;19.228;2023-04-24T04:38:11;97487.79;;;7.83;73.78
77118;BME280;66072;50.238;19.228;2023-04-24T04:40:39;97486.63;;;7.93;73.94
77118;BME280;66072;50.238;19.228;2023-04-24T04:43:07;97482.42;;;8.02;73.52
77118;BME280;66072;50.238;19.228;2023-04-24T04:45:34;97486.67;;;8.12;73.82
77118;BME280;66072;50.238;19.228;2023-04-24T04:48:02;97489.86;;;8.22;73.82
77118;BME280;66072;50.238;19.228;2023-04-24T04:50:30;97488.85;;;8.32;73.96
77118;BME280;66072;50.238;19.228;2023-04-24T04:52:57;97491.70;;;8.43;74.10
77118;BME280;66072;50.238;19.228;2023-04-24T04:55:25;97489.30;;;8.52;73.63
77118;BME280;66072;50.238;19.228;2023-04-24T04:57:53;97491.61;;;8.63;73.34
77118;BME280;66072;50.238;19.228;2023-04-24T05:00:20;97489.65;;;8.74;72.53
77118;BME280;66072;50.238;19.228;2023-04-24T05:02:48;97492.24;;;8.86;72.55
77118;BME280;66072;50.238;19.228;2023-04-24T05:05:16;97486.77;;;8.96;72.42
77118;BME280;66072;50.238;19.228;2023-04-24T05:07:44;97487.45;;;9.05;72.34
77118;BME280;66072;50.238;19.228;2023-04-24T05:10:11;97490.99;;;9.15;72.55
77118;BME280;66072;50.238;19.228;2023-04-24T05:12:39;97485.20;;;9.24;72.47
77118;BME280;66072;50.238;19.228;2023-04-24T05:15:07;97491.02;;;9.32;72.26
77118;BME280;66072;50.238;19.228;2023-04-24T05:17:35;97491.45;;;9.39;72.20
77118;BME280;66072;50.238;19.228;2023-04-24T05:20:04;97494.27;;;9.50;71.96
77118;BME280;66072;50.238;19.228;2023-04-24T05:22:31;97491.44;;;9.60;71.81
77118;BME280;66072;50.238;19.228;2023-04-24T05:24:59;97492.70;;;9.74;71.70
77118;BME280;66072;50.238;19.228;2023-04-24T05:27:27;97491.83;;;9.89;71.41
77118;BME280;66072;50.238;19.228;2023-04-24T05:29:54;97491.67;;;10.05;71.03
77118;BME280;66072;50.238;19.228;2023-04-24T05:32:22;97495.00;;;10.24;70.50
77118;BME280;66072;50.238;19.228;2023-04-24T05:34:49;97496.85;;;10.44;70.47
77118;BME280;66072;50.238;19.228;2023-04-24T05:37:17;97493.70;;;10.65;70.43
77118;BME280;66072;50.238;19.228;2023-04-24T05:39:45;97490.30;;;10.87;70.16
77118;BME280;66072;50.238;19.228;2023-04-24T05:42:12;97490.70;;;11.07;69.90
77118;BME280;66072;50.238;19.228;2023-04-24T05:44:40;97488.73;;;11.29;69.65
77118;BME280;66072;50.238;19.228;2023-04-24T05:47:08;97487.19;;;11.50;69.01
77118;BME280;66072;50.238;19.228;2023-04-24T05:49:36;97484.77;;;11.71;68.48
77118;BME280;66072;50.238;19.228;2023-04-24T05:52:03;97486.34;;;11.89;67.71
77118;BME280;66072;50.238;19.228;2023-04-24T05:54:31;97487.23;;;12.06;66.76
77118;BME280;66072;50.238;19.228;2023-04-24T05:56:58;97488.46;;;12.23;66.28
77118;BME280;66072;50.238;19.228;2023-04-24T05:59:26;97483.15;;;12.40;65.69
77118;BME280;66072;50.238;19.228;2023-04-24T06:01:54;97484.85;;;12.58;64.53
77118;BME280;66072;50.238;19.228;2023-04-24T06:04:21;97481.31;;;12.76;62.24
77118;BME280;66072;50.238;19.228;2023-04-24T06:06:49;97476.44;;;12.97;60.85
77118;BME280;66072;50.238;19.228;2023-04-24T06:09:17;97473.60;;;13.19;57.68
77118;BME280;66072;50.238;19.228;2023-04-24T06:11:44;97472.66;;;13.44;55.72
77118;BME280;66072;50.238;19.228;2023-04-24T06:14:12;97472.10;;;13.63;55.59
77118;BME280;66072;50.238;19.228;2023-04-24T06:16:42;97473.55;;;13.78;55.35
77118;BME280;66072;50.238;19.228;2023-04-24T06:19:10;97472.39;;;13.95;51.91
77118;BME280;66072;50.238;19.228;2023-04-24T06:21:37;97469.38;;;14.19;50.77
77118;BME280;66072;50.238;19.228;2023-04-24T06:24:05;97469.03;;;14.39;49.54
77118;BME280;66072;50.238;19.228;2023-04-24T06:26:33;97469.31;;;14.58;49.24
77118;BME280;66072;50.238;19.228;2023-04-24T06:29:00;97463.69;;;14.74;48.91
77118;BME280;66072;50.238;19.228;2023-04-24T06:31:28;97463.77;;;14.90;47.92
77118;BME280;66072;50.238;19.228;2023-04-24T06:33:56;97462.48;;;15.04;48.29
77118;BME280;66072;50.238;19.228;2023-04-24T06:36:23;97460.80;;;15.14;48.02
77118;BME280;66072;50.238;19.228;2023-04-24T06:38:51;97462.02;;;15.25;45.63
77118;BME280;66072;50.238;19.228;2023-04-24T06:41:19;97459.16;;;15.37;43.90
77118;BME280;66072;50.238;19.228;2023-04-24T06:43:46;97454.29;;;15.48;43.92
77118;BME280;66072;50.238;19.228;2023-04-24T06:46:14;97451.95;;;15.59;42.98
77118;BME280;66072;50.238;19.228;2023-04-24T06:48:41;97454.60;;;15.69;43.12
77118;BME280;66072;50.238;19.228;2023-04-24T06:51:09;97454.40;;;15.80;42.45
77118;BME280;66072;50.238;19.228;2023-04-24T06:53:37;97456.15;;;15.90;42.43
77118;BME280;66072;50.238;19.228;2023-04-24T06:56:04;97454.86;;;16.01;41.40
77118;BME280;66072;50.238;19.228;2023-04-24T06:58:32;97459.40;;;16.12;41.62
77118;BME280;66072;50.238;19.228;2023-04-24T07:01:00;97454.20;;;16.21;39.74
77118;BME280;66072;50.238;19.228;2023-04-24T07:03:27;97450.23;;;16.31;40.44
77118;BME280;66072;50.238;19.228;2023-04-24T07:05:55;97450.83;;;16.40;39.37
77118;BME280;66072;50.238;19.228;2023-04-24T07:08:23;97451.52;;;16.50;40.41
77118;BME280;66072;50.238;19.228;2023-04-24T07:10:50;97448.46;;;16.57;40.23
77118;BME280;66072;50.238;19.228;2023-04-24T07:13:18;97442.23;;;16.63;40.32
77118;BME280;66072;50.238;19.228;2023-04-24T07:15:45;97439.92;;;16.70;41.03
77118;BME280;66072;50.238;19.228;2023-04-24T07:18:13;97438.41;;;16.74;40.63
77118;BME280;66072;50.238;19.228;2023-04-24T07:20:41;97431.59;;;16.82;40.07
77118;BME280;66072;50.238;19.228;2023-04-24T07:23:08;97429.65;;;16.90;39.26
77118;BME280;66072;50.238;19.228;2023-04-24T07:25:36;97427.89;;;16.97;39.90
77118;BME280;66072;50.238;19.228;2023-04-24T07:28:04;97426.23;;;17.02;38.48
77118;BME280;66072;50.238;19.228;2023-04-24T07:30:31;97429.52;;;17.11;37.51
77118;BME280;66072;50.238;19.228;2023-04-24T07:32:59;97427.41;;;17.22;37.86
77118;BME280;66072;50.238;19.228;2023-04-24T07:35:27;97428.64;;;17.33;37.16
77118;BME280;66072;50.238;19.228;2023-04-24T07:37:54;97428.55;;;17.43;38.00
77118;BME280;66072;50.238;19.228;2023-04-24T07:40:22;97429.42;;;17.54;36.84
77118;BME280;66072;50.238;19.228;2023-04-24T07:42:49;97428.46;;;17.68;36.19
77118;BME280;66072;50.238;19.228;2023-04-24T07:45:17;97427.61;;;17.78;37.25
77118;BME280;66072;50.238;19.228;2023-04-24T07:47:45;97420.01;;;17.87;37.11
77118;BME280;66072;50.238;19.228;2023-04-24T07:50:13;97423.91;;;18.03;36.17
77118;BME280;66072;50.238;19.228;2023-04-24T07:52:41;97424.31;;;18.20;34.82
77118;BME280;66072;50.238;19.228;2023-04-24T07:55:09;97419.16;;;18.33;34.57
77118;BME280;66072;50.238;19.228;2023-04-24T07:57:36;97422.59;;;18.42;34.38
77118;BME280;66072;50.238;19.228;2023-04-24T08:00:04;97418.14;;;18.53;35.71
77118;BME280;66072;50.238;19.228;2023-04-24T08:02:32;97414.65;;;18.68;35.31
77118;BME280;66072;50.238;19.228;2023-04-24T08:05:00;97414.66;;;18.86;35.50
77118;BME280;66072;50.238;19.228;2023-04-24T08:07:28;97417.36;;;19.08;35.12
77118;BME280;66072;50.238;19.228;2023-04-24T08:09:56;97413.73;;;19.21;31.94
77118;BME280;66072;50.238;19.228;2023-04-24T08:12:23;97411.81;;;19.27;33.04
77118;BME280;66072;50.238;19.228;2023-04-24T08:14:51;97409.28;;;19.40;33.47
77118;BME280;66072;50.238;19.228;2023-04-24T08:17:18;97411.85;;;19.56;33.50
77118;BME280;66072;50.238;19.228;2023-04-24T08:19:46;97408.17;;;19.70;33.36
77118;BME280;66072;50.238;19.228;2023-04-24T08:22:14;97407.97;;;19.86;32.44
77118;BME280;66072;50.238;19.228;2023-04-24T08:24:42;97410.54;;;19.98;31.43
77118;BME280;66072;50.238;19.228;2023-04-24T08:27:10;97404.33;;;20.10;31.80
77118;BME280;66072;50.238;19.228;2023-04-24T08:29:38;97404.96;;;20.24;32.35
77118;BME280;66072;50.238;19.228;2023-04-24T08:32:05;97401.43;;;20.30;30.82
77118;BME280;66072;50.238;19.228;2023-04-24T08:34:33;97402.26;;;20.40;31.53
77118;BME280;66072;50.238;19.228;2023-04-24T08:37:01;97404.71;;;20.55;30.50
77118;BME280;66072;50.238;19.228;2023-04-24T08:39:28;97403.38;;;20.63;29.93
77118;BME280;66072;50.238;19.228;2023-04-24T08:41:56;97399.15;;;20.74;30.10
77118;BME280;66072;50.238;19.228;2023-04-24T08:44:24;97397.82;;;20.86;29.64
77118;BME280;66072;50.238;19.228;2023-04-24T08:46:52;97396.49;;;20.87;30.14
77118;BME280;66072;50.238;19.228;2023-04-24T08:49:21;97397.04;;;20.95;30.49
77118;BME280;66072;50.238;19.228;2023-04-24T08:51:52;97398.29;;;20.97;30.07
77118;BME280;66072;50.238;19.228;2023-04-24T08:54:20;97392.11;;;21.07;30.70
77118;BME280;66072;50.238;19.228;2023-04-24T08:56:48;97397.84;;;21.23;30.88
77118;BME280;66072;50.238;19.228;2023-04-24T08:59:16;97395.84;;;21.37;30.14
77118;BME280;66072;50.238;19.228;2023-04-24T09:01:45;97394.05;;;21.54;30.39
77118;BME280;66072;50.238;19.228;2023-04-24T09:04:15;97393.81;;;21.68;28.63
77118;BME280;66072;50.238;19.228;2023-04-24T09:06:44;97393.36;;;21.81;29.49
77118;BME280;66072;50.238;19.228;2023-04-24T09:09:12;97393.91;;;21.91;28.19
77118;BME280;66072;50.238;19.228;2023-04-24T09:11:40;97392.17;;;22.04;28.46
77118;BME280;66072;50.238;19.228;2023-04-24T09:14:09;97393.83;;;22.18;28.24
77118;BME280;66072;50.238;19.228;2023-04-24T09:16:37;97391.23;;;22.28;27.73
77118;BME280;66072;50.238;19.228;2023-04-24T09:19:04;97390.09;;;22.40;27.40
77118;BME280;66072;50.238;19.228;2023-04-24T09:21:33;97388.84;;;22.51;27.17
77118;BME280;66072;50.238;19.228;2023-04-24T09:24:03;97386.15;;;22.66;26.77
77118;BME280;66072;50.238;19.228;2023-04-24T09:26:34;97385.00;;;22.94;27.27
77118;BME280;66072;50.238;19.228;2023-04-24T09:29:03;97385.73;;;23.19;26.71
77118;BME280;66072;50.238;19.228;2023-04-24T09:31:31;97378.60;;;23.45;26.24
77118;BME280;66072;50.238;19.228;2023-04-24T09:34:01;97380.86;;;23.60;24.90
77118;BME280;66072;50.238;19.228;2023-04-24T09:36:42;97377.07;;;23.77;25.83
77118;BME280;66072;50.238;19.228;2023-04-24T09:39:12;97374.30;;;24.01;24.85
77118;BME280;66072;50.238;19.228;2023-04-24T09:44:23;97369.34;;;24.33;25.19
77118;BME280;66072;50.238;19.228;2023-04-24T09:46:53;97364.23;;;24.68;24.95
77118;BME280;66072;50.238;19.228;2023-04-24T09:49:31;97361.23;;;25.07;25.62
77118;BME280;66072;50.238;19.228;2023-04-24T09:52:06;97359.69;;;25.39;25.48
77118;BME280;66072;50.238;19.228;2023-04-24T09:54:34;97361.21;;;25.81;24.78
77118;BME280;66072;50.238;19.228;2023-04-24T09:57:02;97358.73;;;26.01;23.53
77118;BME280;66072;50.238;19.228;2023-04-24T09:59:30;97357.09;;;26.16;22.59
77118;BME280;66072;50.238;19.228;2023-04-24T10:01:59;97355.44;;;26.44;23.16
77118;BME280;66072;50.238;19.228;2023-04-24T10:04:28;97356.00;;;26.56;22.46
77118;BME280;66072;50.238;19.228;2023-04-24T10:06:56;97356.75;;;26.44;22.34
77118;BME280;66072;50.238;19.228;2023-04-24T10:09:26;97355.05;;;26.16;22.76
77118;BME280;66072;50.238;19.228;2023-04-24T10:11:54;97359.45;;;25.89;22.25
77118;BME280;66072;50.238;19.228;2023-04-24T10:14:23;97358.80;;;25.64;23.49
77118;BME280;66072;50.238;19.228;2023-04-24T10:16:53;97355.00;;;25.75;23.17
77118;BME280;66072;50.238;19.228;2023-04-24T10:19:21;97352.31;;;25.87;22.60
77118;BME280;66072;50.238;19.228;2023-04-24T10:21:50;97350.64;;;25.83;21.53
77118;BME280;66072;50.238;19.228;2023-04-24T10:24:18;97349.56;;;25.88;21.63
77118;BME280;66072;50.238;19.228;2023-04-24T10:26:46;97343.36;;;26.40;22.23
77118;BME280;66072;50.238;19.228;2023-04-24T10:29:16;97349.41;;;27.30;20.46
77118;BME280;66072;50.238;19.228;2023-04-24T10:31:44;97348.70;;;27.94;19.83
77118;BME280;66072;50.238;19.228;2023-04-24T10:34:13;97345.67;;;28.47;19.54
77118;BME280;66072;50.238;19.228;2023-04-24T10:36:46;97343.20;;;28.73;18.96
77118;BME280;66072;50.238;19.228;2023-04-24T10:39:16;97340.67;;;28.68;18.62
77118;BME280;66072;50.238;19.228;2023-04-24T10:41:44;97338.23;;;28.50;19.03
77118;BME280;66072;50.238;19.228;2023-04-24T10:44:14;97339.97;;;28.44;18.51
77118;BME280;66072;50.238;19.228;2023-04-24T10:46:43;97335.76;;;28.36;18.71
77118;BME280;66072;50.238;19.228;2023-04-24T10:49:12;97333.36;;;28.35;18.50
77118;BME280;66072;50.238;19.228;2023-04-24T10:51:45;97330.45;;;27.84;19.72
77118;BME280;66072;50.238;19.228;2023-04-24T10:59:48;97325.27;;;26.78;21.71
77118;BME280;66072;50.238;19.228;2023-04-24T11:02:17;97322.13;;;26.17;21.95
77118;BME280;66072;50.238;19.228;2023-04-24T11:04:44;97324.02;;;25.66;22.86
77118;BME280;66072;50.238;19.228;2023-04-24T11:07:13;97320.67;;;25.11;22.92
77118;BME280;66072;50.238;19.228;2023-04-24T11:09:41;97316.40;;;24.65;23.47
77118;BME280;66072;50.238;19.228;2023-04-24T11:12:10;97320.92;;;24.25;23.99
77118;BME280;66072;50.238;19.228;2023-04-24T11:17:38;97320.42;;;23.69;25.08
77118;BME280;66072;50.238;19.228;2023-04-24T11:20:17;97326.80;;;23.30;26.06
77118;BME280;66072;50.238;19.228;2023-04-24T11:22:54;97329.19;;;22.85;26.51
77118;BME280;66072;50.238;19.228;2023-04-24T11:25:23;97338.19;;;22.24;29.39
77118;BME280;66072;50.238;19.228;2023-04-24T11:28:03;97337.93;;;21.59;31.03
77118;BME280;66072;50.238;19.228;2023-04-24T11:30:31;97336.64;;;20.96;32.32
77118;BME280;66072;50.238;19.228;2023-04-24T11:33:03;97339.27;;;20.58;32.97
77118;BME280;66072;50.238;19.228;2023-04-24T11:35:36;97340.42;;;20.38;33.57
77118;BME280;66072;50.238;19.228;2023-04-24T11:38:06;97340.70;;;20.29;34.10
77118;BME280;66072;50.238;19.228;2023-04-24T11:40:51;97342.23;;;20.34;33.95
77118;BME280;66072;50.238;19.228;2023-04-24T11:43:19;97341.34;;;20.41;33.71
77118;BME280;66072;50.238;19.228;2023-04-24T11:45:48;97341.03;;;20.54;33.35
77118;BME280;66072;50.238;19.228;2023-04-24T11:48:20;97339.92;;;20.68;33.23
77118;BME280;66072;50.238;19.228;2023-04-24T11:50:50;97346.95;;;20.87;33.24
77118;BME280;66072;50.238;19.228;2023-04-24T11:53:20;97341.45;;;20.98;33.13
77118;BME280;66072;50.238;19.228;2023-04-24T11:55:48;97345.34;;;21.01;33.09
77118;BME280;66072;50.238;19.228;2023-04-24T11:58:20;97342.36;;;21.09;33.27
77118;BME280;66072;50.238;19.228;2023-04-24T12:00:56;97338.98;;;21.16;32.88
77118;BME280;66072;50.238;19.228;2023-04-24T12:03:23;97337.79;;;21.22;32.21
77118;BME280;66072;50.238;19.228;2023-04-24T12:05:51;97335.77;;;21.31;31.84
77118;BME280;66072;50.238;19.228;2023-04-24T12:08:28;97331.08;;;21.52;32.17
77118;BME280;66072;50.238;19.228;2023-04-24T12:10:56;97333.33;;;21.87;31.63
77118;BME280;66072;50.238;19.228;2023-04-24T12:13:25;97331.25;;;22.52;30.38
77118;BME280;66072;50.238;19.228;2023-04-24T12:15:53;97336.25;;;24.33;27.83
77118;BME280;66072;50.238;19.228;2023-04-24T12:18:24;97333.86;;;25.55;25.85
77118;BME280;66072;50.238;19.228;2023-04-24T12:20:51;97335.98;;;25.99;25.29
77118;BME280;66072;50.238;19.228;2023-04-24T12:23:35;97331.75;;;26.06;25.51
77118;BME280;66072;50.238;19.228;2023-04-24T12:26:05;97338.20;;;25.52;25.95
77118;BME280;66072;50.238;19.228;2023-04-24T12:28:38;97333.65;;;24.58;26.93
77118;BME280;66072;50.238;19.228;2023-04-24T12:31:06;97343.61;;;23.78;27.86
77118;BME280;66072;50.238;19.228;2023-04-24T12:33:35;97335.17;;;23.23;29.20
77118;BME280;66072;50.238;19.228;2023-04-24T12:36:03;97334.31;;;22.82;29.93
77118;BME280;66072;50.238;19.228;2023-04-24T12:38:30;97333.04;;;22.55;30.84
77118;BME280;66072;50.238;19.228;2023-04-24T12:43:33;97335.80;;;21.83;32.20
77118;BME280;66072;50.238;19.228;2023-04-24T12:46:01;97335.09;;;21.57;32.60
77118;BME280;66072;50.238;19.228;2023-04-24T12:48:29;97339.16;;;21.19;33.43
77118;BME280;66072;50.238;19.228;2023-04-24T12:50:57;97336.05;;;20.85;34.27
77118;BME280;66072;50.238;19.228;2023-04-24T12:53:25;97343.39;;;20.65;34.59
77118;BME280;66072;50.238;19.228;2023-04-24T12:55:53;97342.14;;;20.45;35.10
77118;BME280;66072;50.238;19.228;2023-04-24T12:58:20;97346.83;;;20.27;35.46
77118;BME280;66072;50.238;19.228;2023-04-24T13:00:48;97343.55;;;20.22;35.92
77118;BME280;66072;50.238;19.228;2023-04-24T13:03:16;97348.92;;;20.15;36.14
77118;BME280;66072;50.238;19.228;2023-04-24T13:05:44;97348.98;;;20.17;36.20
77118;BME280;66072;50.238;19.228;2023-04-24T13:08:11;97344.26;;;20.22;36.13
77118;BME280;66072;50.238;19.228;2023-04-24T13:10:39;97340.89;;;20.27;36.36
77118;BME280;66072;50.238;19.228;2023-04-24T13:13:08;97341.79;;;20.24;36.44
77118;BME280;66072;50.238;19.228;2023-04-24T13:15:35;97333.05;;;20.39;36.58